AirNav   Everest Fuels
 
 537 users online  

LA62 Grand View Lodge Heliport
Lake Charles, Louisiana, USA

GOING TO LAKE CHARLES?


FAA INFORMATION EFFECTIVE 03 DECEMBER 2020

Location

FAA Identifier: LA62
Lat/Long: 29-50-05.0000N 093-00-02.0000W
29-50.083333N 093-00.033333W
29.8347222,-93.0005556
(estimated)
Elevation: 2 ft. / 1 m (estimated)
From city: 6 miles SW of LAKE CHARLES, LA
Time zone: UTC -6 (UTC -5 during Daylight Saving Time)
Zip code: 70632

Heliport Operations

Heliport use: Private use. Permission required prior to landing
Activation date: 10/2007
Control tower: no
ARTCC: HOUSTON CENTER
FSS: DE RIDDER FLIGHT SERVICE STATION
Attendance: UNATNDD
Wind indicator: lighted
Segmented circle: no
Lights: SS-SR

Nearby radio navigation aids

VOR radial/distance  VOR name  Freq  Var
LCHr156/19.2LAKE CHARLES VORTAC113.4007E
LLAr283/34.2WHITE LAKE VOR/DME110.4004E

 
NDB name  Hdg/Dist  Freq  Var  ID
SULPHUR131/30.927804EAUR .- ..- .-.

Heliport Services

Runway Information

Helipad H1

Dimensions: 40 x 40 ft. / 12 x 12 m
Surface: concrete
Runway edge lights: FLD
Traffic pattern: leftleft

Heliport Ownership and Management from official FAA records

Ownership: Privately-owned
Owner: RICHARD ZUSCHLAG
130 E KALISTE SALOOM RD
LAFAYETTE, LA 70509
Phone 337-291-1589
Manager: ERROLL BABINEAUX
112 BORMAN DR
LAFAYETTE, LA 70508
Phone 337-291-1589
OTHER CONTACT MICHAEL SONNIER 337-291-3366 MSONNIER@ACADIAN.COM

Heliport Operational Statistics

Aircraft operations: 12/year
100% local general aviation

Additional Remarks

FREQ 130.05 AVBL.
FOR CD CTC LAKE CHARLES APCH AT 337-480-3103, WHEN APCH CLSD CTC HOUSTON ARTCC AT 281-230-5622.

Instrument Procedures

There are no published instrument procedures at LA62.

Some nearby airports with instrument procedures:

KLCH - Lake Charles Regional Airport (21 nm NW)
KCWF - Chennault International Airport (24 nm N)
6R1 - Welsh Airport (26 nm N)
KUXL - Southland Field Airport (26 nm NW)
3R7 - Jennings Airport (30 nm NE)
 
Loc | Ops | Rwys | IFR | FBO | Links
Com | Nav | Svcs | Stats | Notes
Aerial photo
No photo
 
Sectional chart

 
Airport distance calculator
Flying to Grand View Lodge Heliport? Find the distance to fly.

From to LA62

Sunrise and sunset
Times for 04-Dec-2020
 Local
(UTC-6)
 Zulu
(UTC)
Morning civil twilight06:2812:28
Sunrise06:5412:54
Sunset17:1123:11
Evening civil twilight17:3723:37

Current date and time
Zulu (UTC)  04-Dec-2020 06:00:48
Local (UTC-6)  04-Dec-2020 00:00:48
 
METAR
KLCH 
21nm NW 
040553Z AUTO 34012G17KT 10SM BKN050 08/05 A3020 RMK AO2 SLP234 T00780050 10100 20072 401280072 50010
KCWF 
24nm N 
040535Z AUTO 34011G16KT 10SM SCT047 OVC055 07/04 A3019 RMK AO2 T00750042
KUXL 
26nm NW 
040555Z AUTO 33007KT 10SM OVC050 08/05 A3022 RMK AO2 T00770047 10102 20077 401410077
K3R7 
30nm NE 
040535Z AUTO 34010G15KT 10SM OVC039 08/08 A3019 RMK AO2 T00830080
TAF
KLCH 
21nm NW 
032201Z 0322/0418 03010G14KT P6SM FEW009 SCT012 OVC035 TEMPO 0322/0402 SCT009 OVC012 FM040200 34008KT P6SM OVC015 FM040500 33007KT P6SM BKN025 FM040900 34006KT P6SM SCT250
NOTAMs
Click for the latest NOTAMs
NOTAMs are issued by the DoD/FAA and will open in a separate window not controlled by AirNav.

 

 
 

Would you like to see your business listed on this page?

 If your business provides an interesting product or service to pilots, flight crews, aircraft, or users of the Grand View Lodge Heliport, you should consider listing it here.  To start the listing process, click on the button below
 
Add a business
 

Other Pages about Grand View Lodge Heliport

Update a link
 
Copyright © AirNav, LLC. All rights reserved. Privacy Policy  Contact